Wausau, WI (54401)

5:27 AM CDT on August 30, 2016 (GMT -0500)
NorthWest Wausau, near NTC | | Change Station
Active Advisory: Special Statement

Elev 1230 ft 44.98 °N, 89.65 °W | Updated 12 seconds ago

Clear
Clear
68.9 °F
Feels Like 68.9 °F
N
0.0
Wind Variable Wind from WNW
Gusts 0.0 mph

Today
High -- | Low -- °F
--% Chance of Precip.
Yesterday
High -- | Low -- °F
Precip. -- in
Pressure 30.10 in
Visibility 10.0 miles
Clouds Clear
Dew Point 67 °F
Humidity 94%
Rainfall 0.00 in
Snow Depth Not available.
6:18 AM 7:38 PM
Waning Crescent, 4% visible
METAR KAUW 300954Z AUTO 27003KT 10SM CLR 20/18 A3011 RMK AO2 SLP193 T02000183
Pressure 30.10 in
Visibility 10.0 miles
Clouds Clear
Dew Point 67 °F
Humidity 94%
Rainfall 0.00 in
Snow Depth Not available.
6:18 AM 7:38 PM
Waning Crescent, 4% visible
METAR KAUW 300954Z AUTO 27003KT 10SM CLR 20/18 A3011 RMK AO2 SLP193 T02000183

10-Day Weather Forecast

Almanac

Astronomy

Aug. 30, 2016 Rise Set
Actual Time
Civil Twilight
Nautical Twilight
Astronomical Twilight
Moon
Length of Visible Light
Length of Day
Tomorrow will be .
, % of the Moon is Illuminated

Today's Extremes

State Highs State Lows

Community

WunderPhotos

Upload Photos

1,935,809 photos uploaded!

WunderBlog® & News

Nearby

Air Quality

  Air Quality AQ Index Pollutant
Not available.

Snow Depth

Station Depth Elevation

Earthquake Activity

City Distance Mag. Time & Date
Minimum magnitude displayed is 2.5.

Coastal Water Temperatures

Place Temperature

Stations

Nearby Weather Stations

Station Location Temp. Windchill Dew Point Humidity Wind Precip. Elev Updated Type
                   

Watches & Warnings

Special Statement
Issued: 5:05 AM CDT Aug. 30, 2016 – National Weather Service

... Pockets of dense fog early this morning...

A moist surface with dewpoints in the 60s combined with partial
clearing and light winds have led to the formation of fog early
this morning. The fog is locally dense over parts of central
Wisconsin and north central Wisconsin. Locally dense fog may also
form over parts of east central Wisconsin by daybreak.

The dense fog will reduce visibilities to one quarter mile or less
at times. Motorists should be alert for these pockets of dense
fog for the morning commute. The fog should dissipate shortly
after sunrise.



505 am CDT Tue Aug 30 2016

... Pockets of dense fog early this morning...

A moist surface with dewpoints in the 60s combined with partial
clearing and light winds have led to the formation of fog early
this morning. The fog is locally dense over parts of central
Wisconsin and north central Wisconsin. Locally dense fog may also
form over parts of east central Wisconsin by daybreak.

The dense fog will reduce visibilities to one quarter mile or less
at times. Motorists should be alert for these pockets of dense
fog for the morning commute. The fog should dissipate shortly
after sunrise.




Tdh